createdAt,value
2022-12-07T00:02:15.573Z,40
2022-12-07T00:04:44.638Z,45
2022-12-07T00:07:14.025Z,46
2022-12-07T00:09:44.668Z,40
2022-12-07T00:12:16.839Z,40
2022-12-07T00:14:47.346Z,36
2022-12-07T00:17:19.311Z,39
2022-12-07T00:19:50.346Z,36
2022-12-07T00:22:21.000Z,36
2022-12-07T00:24:52.225Z,40
2022-12-07T00:27:23.124Z,36
2022-12-07T00:29:53.532Z,36
2022-12-07T00:32:24.744Z,39
2022-12-07T00:34:56.017Z,52
2022-12-07T00:37:26.722Z,48
2022-12-07T00:39:58.729Z,55
2022-12-07T00:42:30.081Z,52
2022-12-07T00:45:01.265Z,37
2022-12-07T00:47:32.184Z,36
2022-12-07T00:50:03.530Z,34
2022-12-07T00:52:34.546Z,32
2022-12-07T00:55:03.808Z,36
2022-12-07T00:57:34.950Z,32
2022-12-07T01:00:05.893Z,36
2022-12-07T01:02:36.818Z,32
2022-12-07T01:05:07.678Z,54
2022-12-07T01:07:38.431Z,36
2022-12-07T01:10:09.258Z,32
2022-12-07T01:12:40.022Z,35
2022-12-07T01:15:11.362Z,36
2022-12-07T01:17:42.443Z,36
2022-12-07T01:20:13.960Z,32
2022-12-07T01:22:44.882Z,39
2022-12-07T01:25:15.588Z,32
2022-12-07T01:27:46.630Z,46
2022-12-07T01:30:17.725Z,48
2022-12-07T01:32:48.349Z,40
2022-12-07T01:35:19.322Z,44
2022-12-07T01:37:50.714Z,32
2022-12-07T01:40:28.561Z,32
2022-12-07T01:42:59.399Z,30
2022-12-07T01:45:28.715Z,32
2022-12-07T01:48:01.387Z,31
2022-12-07T01:50:31.277Z,32
2022-12-07T01:53:02.387Z,32
2022-12-07T01:55:33.855Z,30
2022-12-07T01:58:04.530Z,32
2022-12-07T02:00:36.173Z,43
2022-12-07T02:03:08.316Z,39
2022-12-07T02:05:39.077Z,32
2022-12-07T02:08:09.822Z,29
2022-12-07T02:10:41.160Z,36
2022-12-07T02:13:11.963Z,34
2022-12-07T02:15:42.695Z,30
2022-12-07T02:18:14.079Z,35
2022-12-07T02:20:45.139Z,32
2022-12-07T02:23:17.079Z,32
2022-12-07T02:25:47.990Z,32
2022-12-07T02:28:19.774Z,32
2022-12-07T02:30:51.372Z,33
2022-12-07T02:33:23.273Z,28
2022-12-07T02:35:54.044Z,32
2022-12-07T02:38:24.851Z,31
2022-12-07T02:40:55.603Z,31
2022-12-07T02:43:26.812Z,28
2022-12-07T02:46:02.035Z,28
2022-12-07T02:48:33.219Z,32
2022-12-07T02:51:04.943Z,31
2022-12-07T02:53:35.941Z,28
2022-12-07T02:56:07.223Z,28
2022-12-07T02:58:38.363Z,28
2022-12-07T03:01:09.249Z,28
2022-12-07T03:03:40.329Z,28
2022-12-07T03:06:12.331Z,28
2022-12-07T03:08:42.772Z,30
2022-12-07T03:11:17.632Z,24
2022-12-07T03:13:44.918Z,28
2022-12-07T03:16:16.290Z,28
2022-12-07T03:18:45.586Z,27
2022-12-07T03:21:16.180Z,24
2022-12-07T03:23:47.474Z,27
2022-12-07T03:26:18.518Z,24
2022-12-07T03:28:49.285Z,20
2022-12-07T03:31:20.705Z,24
2022-12-07T03:33:51.975Z,28
2022-12-07T03:36:23.150Z,26
2022-12-07T03:38:54.180Z,28
2022-12-07T03:41:25.376Z,28
2022-12-07T03:43:56.109Z,28
2022-12-07T03:46:27.350Z,28
2022-12-07T03:48:58.630Z,27
2022-12-07T03:51:29.865Z,24
2022-12-07T03:54:00.652Z,28
2022-12-07T03:56:32.589Z,27
2022-12-07T03:59:03.100Z,24
2022-12-07T04:01:35.042Z,20
2022-12-07T04:04:06.287Z,21
2022-12-07T04:06:37.001Z,16
2022-12-07T04:09:08.483Z,16
2022-12-07T04:11:40.131Z,22
2022-12-07T04:14:11.217Z,16
2022-12-07T04:16:44.611Z,12
2022-12-07T04:19:13.360Z,17
2022-12-07T04:21:44.172Z,20
2022-12-07T04:24:15.914Z,24
2022-12-07T04:26:47.350Z,28
2022-12-07T04:29:18.208Z,24
2022-12-07T04:31:50.295Z,20
2022-12-07T04:34:21.851Z,17
2022-12-07T04:36:52.620Z,16
2022-12-07T04:39:23.528Z,20
2022-12-07T04:41:54.747Z,16
2022-12-07T04:44:26.516Z,16
2022-12-07T04:46:57.827Z,19
2022-12-07T04:49:27.326Z,17
2022-12-07T04:51:58.484Z,16
2022-12-07T04:54:29.794Z,16
2022-12-07T04:57:00.594Z,17
2022-12-07T04:59:31.510Z,16
2022-12-07T05:02:02.534Z,15
2022-12-07T05:04:33.195Z,15
2022-12-07T05:07:04.227Z,16
2022-12-07T05:09:37.023Z,13
2022-12-07T05:12:07.540Z,14
2022-12-07T05:14:39.294Z,24
2022-12-07T05:17:10.171Z,20
2022-12-07T05:19:41.103Z,18
2022-12-07T05:22:11.800Z,13
2022-12-07T05:24:43.540Z,15
2022-12-07T05:27:14.749Z,16
2022-12-07T05:29:45.525Z,13
2022-12-07T05:32:16.472Z,12
2022-12-07T05:34:47.369Z,16
2022-12-07T05:37:18.272Z,16
2022-12-07T05:39:49.884Z,12
2022-12-07T05:42:21.542Z,12
2022-12-07T05:44:52.625Z,14
2022-12-07T05:47:23.643Z,16
2022-12-07T05:49:54.692Z,16
2022-12-07T05:52:25.160Z,16
2022-12-07T05:54:56.147Z,32
2022-12-07T05:57:27.080Z,32
2022-12-07T05:59:58.549Z,20
2022-12-07T06:02:29.243Z,16
2022-12-07T06:05:00.086Z,24
2022-12-07T06:07:29.771Z,20
2022-12-07T06:10:01.535Z,24
2022-12-07T06:12:32.435Z,21
2022-12-07T06:15:02.920Z,20
2022-12-07T06:17:34.110Z,22
2022-12-07T06:20:03.585Z,17
2022-12-07T06:22:34.626Z,16
2022-12-07T06:25:08.487Z,20
2022-12-07T06:27:36.224Z,24
2022-12-07T06:30:06.820Z,24
2022-12-07T06:32:38.023Z,24
2022-12-07T06:35:07.567Z,24
2022-12-07T06:37:38.422Z,20
2022-12-07T06:40:10.221Z,32
2022-12-07T06:42:41.435Z,24
2022-12-07T06:45:10.590Z,24
2022-12-07T06:47:41.697Z,24
2022-12-07T06:50:12.672Z,24
2022-12-07T06:52:43.847Z,28
2022-12-07T06:55:14.818Z,24
2022-12-07T06:57:45.466Z,22
2022-12-07T07:00:21.688Z,20
2022-12-07T07:02:48.003Z,24
2022-12-07T07:05:17.939Z,24
2022-12-07T07:08:20.016Z,23
2022-12-07T07:10:20.871Z,20
2022-12-07T07:12:55.880Z,22
2022-12-07T07:15:27.295Z,20
2022-12-07T07:17:57.993Z,24
2022-12-07T07:20:29.058Z,28
2022-12-07T07:22:59.653Z,31
2022-12-07T07:25:30.454Z,36
2022-12-07T07:28:01.983Z,34
2022-12-07T07:30:33.077Z,32
2022-12-07T07:33:03.713Z,32
2022-12-07T07:35:34.164Z,32
2022-12-07T07:38:04.567Z,32
2022-12-07T07:40:35.052Z,32
2022-12-07T07:43:05.809Z,28
2022-12-07T07:45:36.545Z,28
2022-12-07T07:48:07.124Z,32
2022-12-07T07:50:38.161Z,29
2022-12-07T07:53:08.937Z,28
2022-12-07T07:55:39.523Z,32
2022-12-07T07:58:10.674Z,29
2022-12-07T08:00:41.381Z,28
2022-12-07T08:03:13.278Z,32
2022-12-07T08:05:44.137Z,36
2022-12-07T08:08:14.908Z,29
2022-12-07T08:10:45.803Z,30
2022-12-07T08:13:16.164Z,32
2022-12-07T08:15:46.562Z,28
2022-12-07T08:18:15.700Z,28
2022-12-07T08:20:46.447Z,32
2022-12-07T08:23:16.971Z,34
2022-12-07T08:25:47.274Z,40
2022-12-07T08:28:18.192Z,36
2022-12-07T08:30:50.130Z,30
2022-12-07T08:33:21.425Z,28
2022-12-07T08:35:52.001Z,28
2022-12-07T08:38:25.068Z,24
2022-12-07T08:40:52.866Z,24
2022-12-07T08:43:23.501Z,28
2022-12-07T08:45:54.491Z,24
2022-12-07T08:48:25.502Z,40
2022-12-07T08:50:56.415Z,28
2022-12-07T08:53:26.911Z,26
2022-12-07T08:55:57.227Z,25
2022-12-07T08:58:28.523Z,29
2022-12-07T09:00:59.698Z,63
2022-12-07T09:03:30.379Z,61
2022-12-07T09:06:01.364Z,36
2022-12-07T09:08:32.009Z,56
2022-12-07T09:11:03.285Z,85
2022-12-07T09:13:33.740Z,91
2022-12-07T09:16:04.526Z,84
2022-12-07T09:18:35.520Z,142
2022-12-07T09:21:05.978Z,119
2022-12-07T09:23:36.387Z,73
2022-12-07T09:26:10.376Z,104
2022-12-07T09:28:37.451Z,79
2022-12-07T09:31:23.091Z,72
2022-12-07T09:33:38.696Z,62
2022-12-07T09:36:10.049Z,44
2022-12-07T09:38:40.859Z,40
2022-12-07T09:41:12.162Z,42
2022-12-07T09:43:42.372Z,40
2022-12-07T09:46:13.751Z,40
2022-12-07T09:48:44.499Z,40
2022-12-07T09:51:19.436Z,40
2022-12-07T09:53:46.204Z,38
2022-12-07T09:56:17.038Z,40
2022-12-07T09:58:47.337Z,41
2022-12-07T10:01:18.307Z,40
2022-12-07T10:03:48.830Z,36
2022-12-07T10:06:19.943Z,40
2022-12-07T10:08:51.009Z,40
2022-12-07T10:11:22.079Z,40
2022-12-07T10:13:52.886Z,40
2022-12-07T10:16:24.034Z,47
2022-12-07T10:18:54.755Z,44
2022-12-07T10:21:25.963Z,47
2022-12-07T10:23:56.338Z,36
2022-12-07T10:26:26.768Z,48
2022-12-07T10:28:58.517Z,35
2022-12-07T10:31:29.812Z,36
2022-12-07T10:34:00.871Z,36
2022-12-07T10:36:32.010Z,36
2022-12-07T10:39:02.745Z,36
2022-12-07T10:41:33.602Z,36
2022-12-07T10:44:04.391Z,36
2022-12-07T10:46:35.741Z,37
2022-12-07T10:49:06.094Z,45
2022-12-07T10:51:39.514Z,52
2022-12-07T10:54:07.886Z,43
2022-12-07T10:56:39.030Z,52
2022-12-07T10:59:09.757Z,46
2022-12-07T11:01:40.631Z,52
2022-12-07T11:04:11.328Z,50
2022-12-07T11:06:42.300Z,56
2022-12-07T11:09:12.745Z,78
2022-12-07T11:11:43.607Z,60
2022-12-07T11:14:15.312Z,44
2022-12-07T11:16:46.061Z,44
2022-12-07T11:19:16.531Z,69
2022-12-07T11:21:46.979Z,44
2022-12-07T11:24:17.526Z,36
2022-12-07T11:26:48.051Z,32
2022-12-07T11:29:18.334Z,32
2022-12-07T11:31:48.927Z,40
2022-12-07T11:34:19.532Z,40
2022-12-07T11:36:50.610Z,45
2022-12-07T11:39:22.141Z,48
2022-12-07T11:41:53.412Z,36
2022-12-07T11:44:28.899Z,62
2022-12-07T11:47:03.018Z,40
2022-12-07T11:49:33.580Z,39
2022-12-07T11:52:04.577Z,39
2022-12-07T11:54:34.760Z,36
2022-12-07T11:57:05.897Z,32
2022-12-07T11:59:37.332Z,28
2022-12-07T12:02:08.136Z,32
2022-12-07T12:04:38.893Z,25
2022-12-07T12:09:40.119Z,28
2022-12-07T12:14:44.852Z,28
2022-12-07T12:17:13.706Z,28
2022-12-07T12:19:44.802Z,28
2022-12-07T12:22:15.273Z,32
2022-12-07T12:24:46.073Z,32
2022-12-07T12:27:16.805Z,32
2022-12-07T12:29:47.836Z,33
2022-12-07T12:32:20.016Z,32
2022-12-07T12:34:51.279Z,34
2022-12-07T12:37:22.027Z,41
2022-12-07T12:39:53.195Z,36
2022-12-07T12:42:24.463Z,56
2022-12-07T12:44:55.658Z,40
2022-12-07T12:47:26.647Z,32
2022-12-07T12:49:58.555Z,48
2022-12-07T12:52:29.699Z,40
2022-12-07T12:55:01.211Z,36
2022-12-07T12:57:32.198Z,36
2022-12-07T13:00:03.410Z,36
2022-12-07T13:02:35.055Z,32
2022-12-07T13:05:06.608Z,33
2022-12-07T13:07:37.031Z,40
2022-12-07T13:10:08.070Z,32
2022-12-07T13:12:38.399Z,36
2022-12-07T13:15:09.647Z,36
2022-12-07T13:17:40.948Z,45
2022-12-07T13:20:17.337Z,36
2022-12-07T13:22:43.795Z,36
2022-12-07T13:25:21.566Z,36
2022-12-07T13:27:51.911Z,39
2022-12-07T13:30:23.046Z,32
2022-12-07T13:32:52.381Z,30
2022-12-07T13:35:23.785Z,28
2022-12-07T13:37:54.214Z,28
2022-12-07T13:40:25.467Z,32
2022-12-07T13:42:57.251Z,28
2022-12-07T13:45:29.052Z,36
2022-12-07T13:47:59.861Z,36
2022-12-07T13:50:31.091Z,32
2022-12-07T13:53:02.258Z,32
2022-12-07T13:55:33.482Z,32
2022-12-07T13:58:05.233Z,37
2022-12-07T14:00:37.023Z,40
2022-12-07T14:03:08.134Z,49
2022-12-07T14:05:39.531Z,40
2022-12-07T14:08:11.107Z,40
2022-12-07T14:10:42.408Z,40
2022-12-07T14:13:13.971Z,40
2022-12-07T14:15:45.275Z,44
2022-12-07T14:18:18.296Z,39
2022-12-07T14:20:49.176Z,36
2022-12-07T14:23:20.937Z,32
2022-12-07T14:25:52.478Z,32
2022-12-07T14:28:24.088Z,30
2022-12-07T14:30:55.238Z,30
2022-12-07T14:33:26.308Z,36
2022-12-07T14:35:57.519Z,40
2022-12-07T14:38:29.012Z,40
2022-12-07T14:41:00.634Z,49
2022-12-07T14:43:31.730Z,44
2022-12-07T14:46:02.295Z,46
2022-12-07T14:53:42.000Z,44
2022-12-07T14:56:14.635Z,33
2022-12-07T14:58:45.852Z,33
2022-12-07T15:01:17.061Z,36
2022-12-07T15:03:48.844Z,34
2022-12-07T15:06:20.424Z,44
2022-12-07T15:08:52.821Z,43
2022-12-07T15:11:24.304Z,40
2022-12-07T15:13:55.529Z,39
2022-12-07T15:16:27.587Z,36
2022-12-07T15:19:26.623Z,44
2022-12-07T15:21:30.955Z,36
2022-12-07T15:24:03.128Z,41
2022-12-07T15:26:34.104Z,40
2022-12-07T15:29:05.721Z,36
2022-12-07T15:31:54.929Z,36
2022-12-07T15:34:08.727Z,40
2022-12-07T15:36:39.773Z,40
2022-12-07T15:39:14.874Z,36
2022-12-07T15:41:41.389Z,42
2022-12-07T15:44:12.700Z,36
2022-12-07T15:46:45.025Z,40
2022-12-07T15:49:16.508Z,36
2022-12-07T15:51:47.534Z,36
2022-12-07T15:54:19.589Z,32
2022-12-07T15:56:51.137Z,34
2022-12-07T15:59:22.016Z,36
2022-12-07T16:01:53.112Z,40
2022-12-07T16:04:24.213Z,32
2022-12-07T16:06:53.564Z,24
2022-12-07T16:09:25.455Z,32
2022-12-07T16:11:56.849Z,28
2022-12-07T16:14:28.663Z,32
2022-12-07T16:16:59.787Z,32
2022-12-07T16:19:30.659Z,24
2022-12-07T16:22:02.234Z,32
2022-12-07T16:24:32.889Z,27
2022-12-07T16:27:04.570Z,28
2022-12-07T16:29:36.569Z,40
2022-12-07T16:32:07.675Z,28
2022-12-07T16:34:38.388Z,28
2022-12-07T16:37:09.401Z,27
2022-12-07T16:39:40.450Z,32
2022-12-07T16:42:12.412Z,28
2022-12-07T16:44:44.731Z,32
2022-12-07T16:47:15.835Z,36
2022-12-07T16:49:47.002Z,28
2022-12-07T16:52:20.880Z,28
2022-12-07T16:54:49.533Z,31
2022-12-07T16:57:23.250Z,28
2022-12-07T16:59:51.570Z,32
2022-12-07T17:02:22.981Z,32
2022-12-07T17:04:54.661Z,36
2022-12-07T17:07:26.613Z,37
2022-12-07T17:09:57.436Z,33
2022-12-07T17:12:29.790Z,36
2022-12-07T17:15:02.230Z,40
2022-12-07T17:17:32.911Z,41
2022-12-07T17:20:04.209Z,60
2022-12-07T17:22:35.684Z,64
2022-12-07T17:25:07.096Z,52
2022-12-07T17:27:37.708Z,52
2022-12-07T17:30:08.697Z,44
2022-12-07T17:32:37.953Z,44
2022-12-07T17:35:09.198Z,45
2022-12-07T17:37:40.544Z,47
2022-12-07T17:40:10.157Z,40
2022-12-07T17:42:41.398Z,44
2022-12-07T17:45:11.298Z,41
2022-12-07T17:47:42.236Z,40
2022-12-07T17:50:13.623Z,41
2022-12-07T17:52:44.763Z,56
2022-12-07T17:55:16.832Z,52
2022-12-07T17:57:47.627Z,61
2022-12-07T18:00:21.351Z,70
2022-12-07T18:02:52.573Z,61
2022-12-07T18:05:21.978Z,77
2022-12-07T18:07:53.191Z,67
2022-12-07T18:10:23.938Z,79
2022-12-07T18:12:55.399Z,72
2022-12-07T18:15:26.545Z,61
2022-12-07T18:17:57.645Z,58
2022-12-07T18:20:29.666Z,57
2022-12-07T18:23:00.996Z,48
2022-12-07T18:25:32.133Z,64
2022-12-07T18:28:02.914Z,59
2022-12-07T18:30:58.833Z,42
2022-12-07T18:33:08.190Z,51
2022-12-07T18:35:39.209Z,55
2022-12-07T18:38:10.518Z,48
2022-12-07T18:40:41.395Z,59
2022-12-07T18:43:12.721Z,49
2022-12-07T18:45:45.113Z,44
2022-12-07T18:48:16.401Z,41
2022-12-07T18:50:47.698Z,44
2022-12-07T18:53:18.939Z,40
2022-12-07T18:55:49.808Z,48
2022-12-07T18:58:20.474Z,40
2022-12-07T19:00:51.879Z,40
2022-12-07T19:03:22.782Z,40
2022-12-07T19:05:54.413Z,45
2022-12-07T19:08:25.347Z,48
2022-12-07T19:10:56.279Z,56
2022-12-07T19:13:25.894Z,47
2022-12-07T19:15:57.344Z,51
2022-12-07T19:18:31.691Z,56
2022-12-07T19:21:02.548Z,64
2022-12-07T19:23:33.796Z,54
2022-12-07T19:26:04.902Z,45
2022-12-07T19:28:36.160Z,40
2022-12-07T19:31:07.253Z,40
2022-12-07T19:33:38.410Z,36
2022-12-07T19:36:09.898Z,44
2022-12-07T19:38:41.201Z,44
2022-12-07T19:41:12.080Z,44
2022-12-07T19:43:43.346Z,44
2022-12-07T19:46:14.311Z,56
2022-12-07T19:48:45.390Z,54
2022-12-07T19:51:16.488Z,48
2022-12-07T19:53:46.832Z,49
2022-12-07T19:56:18.047Z,51
2022-12-07T19:58:53.507Z,54
2022-12-07T20:01:24.283Z,50
2022-12-07T20:03:55.720Z,52
2022-12-07T20:06:26.696Z,52
2022-12-07T20:08:58.612Z,52
2022-12-07T20:11:29.494Z,52
2022-12-07T20:14:01.569Z,67
2022-12-07T20:16:32.377Z,49
2022-12-07T20:19:05.279Z,57
2022-12-07T20:21:36.989Z,62
2022-12-07T20:24:08.047Z,76
2022-12-07T20:26:39.252Z,64
2022-12-07T20:29:14.949Z,66
2022-12-07T20:31:41.697Z,63
2022-12-07T20:34:13.675Z,62
2022-12-07T20:36:44.658Z,61
2022-12-07T20:39:15.593Z,68
2022-12-07T20:41:51.568Z,64
2022-12-07T20:44:21.658Z,56
2022-12-07T20:49:29.339Z,65
2022-12-07T20:52:00.474Z,66
2022-12-07T20:54:32.442Z,66
2022-12-07T20:57:03.404Z,72
2022-12-07T20:59:39.760Z,73
2022-12-07T21:02:05.490Z,77
2022-12-07T21:04:36.660Z,80
2022-12-07T21:07:07.619Z,80
2022-12-07T21:09:38.363Z,80
2022-12-07T21:12:09.761Z,80
2022-12-07T21:14:41.026Z,76
2022-12-07T21:17:12.199Z,75
2022-12-07T21:19:43.811Z,78
2022-12-07T21:22:14.913Z,72
2022-12-07T21:24:46.037Z,75
2022-12-07T21:27:17.412Z,73
2022-12-07T21:29:54.030Z,68
2022-12-07T21:32:20.403Z,79
2022-12-07T21:34:51.556Z,75
2022-12-07T21:37:23.433Z,72
2022-12-07T21:39:54.417Z,80
2022-12-07T21:42:26.588Z,83
2022-12-07T21:44:57.521Z,84
2022-12-07T21:47:27.261Z,76
2022-12-07T21:49:58.718Z,79
2022-12-07T21:52:29.552Z,73
2022-12-07T21:55:05.114Z,84
2022-12-07T21:57:36.075Z,119
2022-12-07T22:00:08.186Z,96
2022-12-07T22:02:39.414Z,87
2022-12-07T22:05:10.408Z,84
2022-12-07T22:07:41.837Z,84
2022-12-07T22:10:13.263Z,86
2022-12-07T22:12:44.194Z,79
2022-12-07T22:15:15.366Z,80
2022-12-07T22:17:48.824Z,84
2022-12-07T22:20:19.921Z,88
2022-12-07T22:22:50.779Z,95
2022-12-07T22:25:22.144Z,94
2022-12-07T22:27:53.592Z,103
2022-12-07T22:30:24.803Z,112
2022-12-07T22:32:55.868Z,124
2022-12-07T22:35:27.122Z,120
2022-12-07T22:37:58.839Z,136
2022-12-07T22:40:30.396Z,115
2022-12-07T22:43:01.177Z,104
2022-12-07T22:45:32.319Z,112
2022-12-07T22:48:02.351Z,111
2022-12-07T22:50:33.499Z,107
2022-12-07T22:53:04.687Z,116
2022-12-07T22:55:35.795Z,131
2022-12-07T22:58:07.562Z,117
2022-12-07T23:00:38.963Z,102
2022-12-07T23:03:10.232Z,87
2022-12-07T23:05:41.848Z,84
2022-12-07T23:08:12.798Z,83
2022-12-07T23:10:44.127Z,86
2022-12-07T23:13:14.884Z,92
2022-12-07T23:15:46.068Z,94
2022-12-07T23:18:16.459Z,92
2022-12-07T23:20:47.440Z,96
2022-12-07T23:23:16.723Z,92
2022-12-07T23:25:47.389Z,89
2022-12-07T23:28:18.910Z,88
2022-12-07T23:30:49.413Z,96
2022-12-07T23:33:19.896Z,90
2022-12-07T23:35:50.593Z,89
2022-12-07T23:38:21.015Z,96
2022-12-07T23:40:51.272Z,103
2022-12-07T23:43:22.862Z,95
2022-12-07T23:45:53.744Z,93
2022-12-07T23:48:24.074Z,88
2022-12-07T23:50:55.254Z,80
2022-12-07T23:53:26.227Z,92
2022-12-07T23:55:56.738Z,99
2022-12-07T23:58:28.726Z,99
